Time;durP1;ratioP1;P1;durP2;ratioP2;P2;SDS_P1;SDS_P2;PMS_P1;PMS_P2;Temp;Humidity;BMP_temperature;BMP_pressure;BME280_temperature;BME280_humidity;BME280_pressure;Samples;Min_cycle;Max_cycle;Signal;HPM_P1;HPM_P2
2023/12/31 00:04:40;;;;;;;4.95;1.42;;;15.60;99.90;;;;;;10561579;27;20056;-71
2023/12/31 00:09:43;;;;;;;3.67;1.02;;;15.40;99.90;;;;;;10557688;28;20155;-71
2023/12/31 00:14:46;;;;;;;3.58;0.95;;;15.60;99.90;;;;;;10558812;28;20426;-72
2023/12/31 00:19:49;;;;;;;2.72;0.73;;;15.40;99.90;;;;;;10565672;28;20059;-71
2023/12/31 00:24:54;;;;;;;2.75;0.80;;;15.60;99.90;;;;;;10565535;28;20056;-70
2023/12/31 00:29:59;;;;;;;1.77;0.70;;;15.50;99.90;;;;;;10558962;27;20457;-71
2023/12/31 00:35:01;;;;;;;1.83;0.93;;;15.50;99.90;;;;;;10579417;27;20522;-70
2023/12/31 00:40:04;;;;;;;1.47;0.73;;;15.60;99.90;;;;;;10568612;28;20513;-72
2023/12/31 00:45:08;;;;;;;3.00;1.10;;;15.60;99.90;;;;;;10571275;27;20063;-72
2023/12/31 00:50:11;;;;;;;1.13;0.60;;;15.60;99.90;;;;;;10565993;28;20113;-71
2023/12/31 00:55:13;;;;;;;3.28;0.60;;;15.50;99.90;;;;;;10559901;28;20641;-71
2023/12/31 01:00:17;;;;;;;2.67;0.77;;;15.70;99.90;;;;;;10571223;28;20460;-70
2023/12/31 01:05:19;;;;;;;3.00;0.80;;;15.30;99.90;;;;;;10558056;28;20855;-70
2023/12/31 01:10:21;;;;;;;2.40;0.80;;;15.50;99.90;;;;;;10565070;28;20490;-70
2023/12/31 01:15:26;;;;;;;3.60;0.60;;;15.30;99.90;;;;;;10551881;28;20124;-70
2023/12/31 01:20:29;;;;;;;3.38;1.10;;;15.40;99.90;;;;;;10557459;28;20506;-70
2023/12/31 01:25:32;;;;;;;2.22;0.80;;;15.60;99.90;;;;;;10571191;28;20052;-71
2023/12/31 01:30:37;;;;;;;1.48;0.70;;;15.30;99.90;;;;;;10557992;28;20040;-70
2023/12/31 01:35:39;;;;;;;2.00;1.00;;;15.60;99.90;;;;;;10563849;27;20050;-72
2023/12/31 01:40:41;;;;;;;2.28;0.85;;;15.50;99.90;;;;;;10555237;28;20063;-70
2023/12/31 01:45:45;;;;;;;2.97;1.45;;;15.80;99.90;;;;;;10557574;27;20055;-73
2023/12/31 01:50:49;;;;;;;2.42;0.80;;;15.70;99.90;;;;;;10572768;27;20113;-72
2023/12/31 01:55:52;;;;;;;1.73;0.82;;;15.70;99.90;;;;;;10560955;28;20056;-72
2023/12/31 02:00:57;;;;;;;3.15;0.70;;;15.40;99.90;;;;;;10563122;28;20052;-72
2023/12/31 02:05:59;;;;;;;5.18;0.90;;;15.70;99.90;;;;;;10563873;27;20051;-71
2023/12/31 02:11:01;;;;;;;1.48;0.70;;;15.70;99.90;;;;;;10555798;28;20055;-70
2023/12/31 02:16:13;;;;;;;2.27;1.13;;;15.30;99.90;;;;;;10572095;27;20047;-71
2023/12/31 02:21:15;;;;;;;2.00;0.90;;;15.20;99.90;;;;;;10558486;28;20515;-71
2023/12/31 02:26:19;;;;;;;1.53;1.27;;;15.30;99.90;;;;;;10564909;27;20070;-71
2023/12/31 02:31:21;;;;;;;0.95;0.57;;;15.30;99.90;;;;;;10570315;27;20051;-70
2023/12/31 02:36:23;;;;;;;1.40;0.90;;;15.50;99.90;;;;;;10568622;27;20047;-70
2023/12/31 02:41:26;;;;;;;1.73;1.10;;;15.50;99.90;;;;;;10569413;27;20603;-71
2023/12/31 02:46:28;;;;;;;1.73;1.13;;;15.60;99.90;;;;;;10567295;27;20035;-71
2023/12/31 02:51:30;;;;;;;2.00;1.07;;;15.60;99.90;;;;;;10568964;27;20112;-71
2023/12/31 02:56:40;;;;;;;3.37;1.60;;;15.20;99.90;;;;;;10576580;28;20058;-71
2023/12/31 03:01:42;;;;;;;2.80;1.20;;;15.10;99.90;;;;;;10569545;28;20254;-71
2023/12/31 03:06:47;;;;;;;2.60;1.53;;;15.30;99.90;;;;;;10570204;27;21103;-71
2023/12/31 03:11:52;;;;;;;2.28;1.25;;;15.20;99.90;;;;;;10564650;27;20051;-71
2023/12/31 03:16:54;;;;;;;1.85;1.00;;;15.40;99.90;;;;;;10564702;28;20048;-72
2023/12/31 03:21:56;;;;;;;3.77;1.37;;;15.40;99.90;;;;;;10567360;28;20062;-72
2023/12/31 03:26:59;;;;;;;1.40;0.97;;;15.10;99.90;;;;;;10557584;27;20129;-70
2023/12/31 03:32:02;;;;;;;1.20;0.80;;;15.10;99.90;;;;;;10562396;28;20054;-70
2023/12/31 03:37:05;;;;;;;1.95;1.08;;;15.20;99.90;;;;;;10569940;27;20043;-70
2023/12/31 03:42:11;;;;;;;8.15;1.00;;;15.30;99.90;;;;;;10560815;27;20062;-71
2023/12/31 03:47:13;;;;;;;2.78;1.00;;;15.20;99.90;;;;;;10564738;27;20043;-71
2023/12/31 03:52:16;;;;;;;1.20;0.90;;;15.50;99.90;;;;;;10564549;28;20051;-70
2023/12/31 04:15:32;;;;;;;3.50;0.82;;;15.30;99.90;;;;;;10468903;27;20733;-71
2023/12/31 04:20:34;;;;;;;2.28;1.10;;;15.50;99.90;;;;;;10482693;28;20059;-70
2023/12/31 04:25:36;;;;;;;4.77;1.10;;;15.60;99.90;;;;;;10482525;28;20059;-70
2023/12/31 04:30:40;;;;;;;0.60;0.60;;;15.50;99.90;;;;;;10481086;28;20099;-70
2023/12/31 04:35:42;;;;;;;1.98;1.20;;;15.10;99.90;;;;;;10480997;28;20431;-71
2023/12/31 04:40:44;;;;;;;1.27;0.90;;;15.30;99.90;;;;;;10481406;28;20060;-72
2023/12/31 04:45:48;;;;;;;0.82;0.82;;;15.40;99.90;;;;;;10479311;28;20061;-71
2023/12/31 04:50:50;;;;;;;2.95;1.30;;;15.20;99.90;;;;;;10479767;28;20057;-71
2023/12/31 04:55:52;;;;;;;1.98;1.08;;;15.10;99.90;;;;;;10479369;28;20075;-71
2023/12/31 05:00:56;;;;;;;1.93;1.20;;;15.20;99.90;;;;;;10479798;28;20045;-71
2023/12/31 05:05:58;;;;;;;1.10;1.00;;;14.90;99.90;;;;;;10479397;28;20132;-73
2023/12/31 05:11:00;;;;;;;0.73;0.73;;;15.20;99.90;;;;;;10477437;28;20109;-72
2023/12/31 05:16:04;;;;;;;1.80;1.03;;;15.40;99.90;;;;;;10475035;28;20144;-72
2023/12/31 05:21:06;;;;;;;3.00;1.95;;;14.90;99.90;;;;;;10479011;28;20064;-70
2023/12/31 05:26:08;;;;;;;6.50;2.93;;;15.00;99.90;;;;;;10455171;28;20049;-71
2023/12/31 05:31:12;;;;;;;2.30;1.50;;;15.00;99.90;;;;;;10450727;28;20079;-71
2023/12/31 05:36:14;;;;;;;1.55;1.10;;;15.10;99.90;;;;;;10450333;28;20069;-72
2023/12/31 05:41:16;;;;;;;2.35;1.33;;;15.30;99.90;;;;;;10451141;28;20167;-71
2023/12/31 05:46:20;;;;;;;1.92;1.17;;;15.20;99.90;;;;;;10443869;28;20788;-70
2023/12/31 05:51:23;;;;;;;2.88;1.20;;;15.20;99.90;;;;;;10440171;28;20048;-71
2023/12/31 05:56:25;;;;;;;1.35;0.80;;;15.40;99.90;;;;;;10446871;28;20412;-73
2023/12/31 06:01:28;;;;;;;0.90;0.60;;;15.20;99.90;;;;;;10425295;28;20052;-71
2023/12/31 06:06:35;;;;;;;1.23;1.10;;;15.40;99.90;;;;;;10438575;28;20450;-71
2023/12/31 06:11:38;;;;;;;3.15;1.15;;;15.40;99.90;;;;;;10438438;28;20072;-71
2023/12/31 06:16:42;;;;;;;6.13;2.10;;;15.20;99.90;;;;;;10447783;28;20462;-71
2023/12/31 06:21:44;;;;;;;2.30;1.50;;;15.20;99.90;;;;;;10448203;28;20143;-71
2023/12/31 06:26:46;;;;;;;1.20;0.90;;;14.80;99.90;;;;;;10449657;28;20098;-71
2023/12/31 06:31:51;;;;;;;1.98;1.00;;;15.40;99.90;;;;;;10452985;28;20057;-71
2023/12/31 06:36:53;;;;;;;2.60;1.00;;;15.60;99.90;;;;;;10437136;28;20049;-70
2023/12/31 06:41:55;;;;;;;1.37;1.27;;;15.30;99.90;;;;;;10446454;28;20045;-71
2023/12/31 06:46:59;;;;;;;1.00;0.77;;;15.20;99.90;;;;;;10450870;28;20135;-71
2023/12/31 06:52:01;;;;;;;1.58;1.02;;;15.30;99.90;;;;;;10442355;28;20053;-72
2023/12/31 06:57:04;;;;;;;1.30;1.02;;;15.50;99.90;;;;;;10433058;28;20077;-71
2023/12/31 07:02:07;;;;;;;4.07;1.30;;;15.70;99.90;;;;;;10435668;28;20052;-73
2023/12/31 07:07:09;;;;;;;4.18;1.50;;;15.40;99.90;;;;;;10447137;28;20053;-71
2023/12/31 07:12:12;;;;;;;4.10;1.23;;;15.30;99.90;;;;;;10445825;28;20588;-71
2023/12/31 07:17:15;;;;;;;0.95;0.88;;;15.40;99.90;;;;;;10443104;28;20056;-71
2023/12/31 07:22:18;;;;;;;2.75;1.38;;;15.50;99.90;;;;;;10446980;28;20061;-72
2023/12/31 07:27:20;;;;;;;2.13;1.38;;;15.40;99.90;;;;;;10445435;28;20056;-70
2023/12/31 07:32:24;;;;;;;1.63;1.40;;;15.30;99.90;;;;;;10429145;28;20442;-72
2023/12/31 07:37:26;;;;;;;6.22;1.23;;;15.50;99.90;;;;;;10434821;28;20589;-71
2023/12/31 07:42:28;;;;;;;2.03;1.30;;;15.50;99.90;;;;;;10432369;28;20053;-72
2023/12/31 07:47:35;;;;;;;2.95;0.95;;;15.60;99.90;;;;;;10444722;28;20048;-71
2023/12/31 07:52:37;;;;;;;2.28;1.23;;;15.70;99.90;;;;;;10445477;28;20464;-71
2023/12/31 07:57:39;;;;;;;2.07;1.53;;;15.80;99.90;;;;;;10444341;28;20454;-72
2023/12/31 08:02:43;;;;;;;3.38;1.42;;;15.10;99.90;;;;;;10423333;28;20042;-72
2023/12/31 08:07:45;;;;;;;3.33;1.40;;;14.40;99.90;;;;;;10433024;28;20056;-71
2023/12/31 08:12:47;;;;;;;2.47;0.83;;;13.70;99.90;;;;;;10443393;28;20053;-71
2023/12/31 08:17:51;;;;;;;0.98;0.60;;;13.80;99.90;;;;;;10443776;28;20479;-70
2023/12/31 08:22:53;;;;;;;5.13;1.08;;;13.40;99.90;;;;;;10446090;28;20110;-72
2023/12/31 08:27:55;;;;;;;5.63;0.80;;;13.20;99.90;;;;;;10442034;28;20064;-70
2023/12/31 08:33:00;;;;;;;4.20;1.15;;;12.70;99.90;;;;;;10445531;28;20053;-71
2023/12/31 08:38:02;;;;;;;3.88;0.70;;;13.80;99.90;;;;;;10445129;28;20052;-71
2023/12/31 08:43:05;;;;;;;5.28;1.38;;;13.00;99.90;;;;;;10445169;28;20080;-71
2023/12/31 08:48:10;;;;;;;5.23;0.90;;;13.00;99.90;;;;;;10446060;28;20102;-71
2023/12/31 08:53:12;;;;;;;1.45;0.50;;;12.40;99.90;;;;;;10444318;28;20049;-70
2023/12/31 08:58:14;;;;;;;5.20;0.97;;;12.60;99.90;;;;;;10445562;28;20045;-70
2023/12/31 09:03:18;;;;;;;6.93;0.93;;;12.40;99.90;;;;;;10452373;28;20527;-71
2023/12/31 09:08:20;;;;;;;3.00;0.88;;;11.80;99.90;;;;;;10452584;28;20045;-71
2023/12/31 09:13:23;;;;;;;3.00;0.50;;;12.60;99.90;;;;;;10450410;28;20052;-71
2023/12/31 09:18:28;;;;;;;3.17;1.05;;;13.50;99.90;;;;;;10450970;28;20126;-71
2023/12/31 09:23:30;;;;;;;4.28;1.30;;;13.20;99.90;;;;;;10450472;28;20051;-71
2023/12/31 09:28:32;;;;;;;1.40;0.70;;;13.20;99.90;;;;;;10447568;28;20052;-70
2023/12/31 09:33:35;;;;;;;1.45;0.95;;;12.00;99.90;;;;;;10448711;28;20094;-70
2023/12/31 09:38:37;;;;;;;1.50;0.73;;;12.40;99.90;;;;;;10447940;28;20103;-71
2023/12/31 09:43:41;;;;;;;0.73;0.65;;;12.30;99.90;;;;;;10440464;28;20485;-70
2023/12/31 09:48:45;;;;;;;10.10;4.53;;;13.20;99.90;;;;;;10449026;28;20045;-70
2023/12/31 09:53:48;;;;;;;4.57;2.28;;;13.50;99.90;;;;;;10440256;28;20511;-71
2023/12/31 09:58:51;;;;;;;;;;;12.80;99.90;;;;;;10451662;28;20052;-72
2023/12/31 10:03:55;;;;;;;4.75;1.13;;;12.70;99.90;;;;;;10449020;28;20543;-70
2023/12/31 10:08:58;;;;;;;6.72;2.35;;;13.40;99.90;;;;;;10450915;28;20052;-70
2023/12/31 10:14:01;;;;;;;3.50;1.00;;;13.50;99.90;;;;;;10449687;28;20041;-71
2023/12/31 10:19:04;;;;;;;4.25;1.25;;;12.80;99.90;;;;;;10447633;28;20482;-71
2023/12/31 10:24:06;;;;;;;11.00;0.73;;;12.40;99.90;;;;;;10447062;28;20590;-70
2023/12/31 10:29:13;;;;;;;4.07;0.80;;;11.50;99.90;;;;;;10449828;28;20060;-72
2023/12/31 10:34:18;;;;;;;0.10;0.10;;;10.40;99.90;;;;;;10448113;28;20049;-71
2023/12/31 10:39:27;;;;;;;0.10;0.10;;;9.90;99.90;;;;;;10443414;28;20079;-71
2023/12/31 10:44:33;;;;;;;0.10;0.10;;;9.10;99.90;;;;;;10439966;28;20563;-70
2023/12/31 10:49:42;;;;;;;0.20;0.20;;;9.10;99.90;;;;;;10428146;28;20459;-71
2023/12/31 10:54:49;;;;;;;0.10;0.10;;;9.00;99.90;;;;;;10439433;28;20052;-71
2023/12/31 10:59:54;;;;;;;0.20;0.20;;;8.80;99.90;;;;;;10445944;28;20764;-72
2023/12/31 11:04:58;;;;;;;0.35;0.35;;;8.90;99.90;;;;;;10447073;28;20049;-69
2023/12/31 11:10:01;;;;;;;0.10;0.10;;;8.90;99.90;;;;;;10451566;28;20049;-71
2023/12/31 11:15:07;;;;;;;0.10;0.10;;;9.40;99.90;;;;;;10443380;28;20338;-71
2023/12/31 11:20:45;;;;;;;0.10;0.10;;;9.10;99.90;;;;;;10443351;28;20458;-71
2023/12/31 11:25:48;;;;;;;0.20;0.20;;;9.70;99.90;;;;;;10431578;28;20124;-71
2023/12/31 11:30:52;;;;;;;0.47;0.47;;;9.20;99.90;;;;;;10446924;28;20059;-71
2023/12/31 11:36:01;;;;;;;0.73;0.73;;;8.90;99.90;;;;;;10439235;28;20049;-72
2023/12/31 11:41:04;;;;;;;9.82;2.08;;;8.80;99.90;;;;;;10445132;28;20061;-70
2023/12/31 11:46:06;;;;;;;10.65;1.50;;;8.50;99.90;;;;;;10466033;28;20048;-71
2023/12/31 11:51:16;;;;;;;10.35;1.60;;;8.90;99.90;;;;;;10439072;28;20053;-70
2023/12/31 11:56:20;;;;;;;17.77;2.88;;;9.20;99.90;;;;;;10443340;28;20045;-70
2023/12/31 12:01:22;;;;;;;4.20;1.58;;;9.20;99.90;;;;;;10443867;28;20052;-71
2023/12/31 12:06:26;;;;;;;16.57;2.00;;;9.10;99.90;;;;;;10445888;28;20044;-72
2023/12/31 12:11:28;;;;;;;10.00;1.50;;;9.10;99.90;;;;;;10445827;28;20057;-71
2023/12/31 12:16:30;;;;;;;5.47;1.58;;;9.50;99.90;;;;;;10444915;28;20072;-70
2023/12/31 12:21:34;;;;;;;6.18;1.13;;;9.10;99.90;;;;;;10445086;28;20049;-71
2023/12/31 12:26:36;;;;;;;18.17;1.92;;;9.40;99.90;;;;;;10446304;28;20041;-71
2023/12/31 12:31:38;;;;;;;10.85;1.95;;;10.40;99.90;;;;;;10446202;28;20052;-72
2023/12/31 12:36:42;;;;;;;5.95;0.95;;;10.30;99.90;;;;;;10446193;28;20069;-71
2023/12/31 12:41:45;;;;;;;12.10;1.58;;;10.90;99.90;;;;;;10450680;28;20064;-70
2023/12/31 12:46:50;;;;;;;9.45;2.30;;;10.90;99.90;;;;;;10452822;28;20132;-71
2023/12/31 12:51:55;;;;;;;13.52;2.25;;;10.40;99.90;;;;;;10451743;28;20071;-70
2023/12/31 12:56:56;;;;;;;17.10;2.38;;;10.20;99.90;;;;;;10451114;28;20037;-70
2023/12/31 13:02:00;;;;;;;13.50;3.33;;;10.70;99.90;;;;;;10447972;28;20121;-71
2023/12/31 13:07:04;;;;;;;14.90;3.05;;;10.10;99.90;;;;;;10452925;28;20041;-72
2023/12/31 13:12:06;;;;;;;10.27;1.90;;;10.10;99.90;;;;;;10453424;28;20076;-71
2023/12/31 13:17:09;;;;;;;14.23;1.80;;;10.20;99.90;;;;;;10448173;28;20095;-70
2023/12/31 13:22:12;;;;;;;8.63;1.47;;;10.30;99.90;;;;;;10441141;28;20060;-71
2023/12/31 13:27:15;;;;;;;13.55;2.13;;;11.10;99.90;;;;;;10439056;28;20475;-74
2023/12/31 13:32:17;;;;;;;10.25;2.13;;;10.80;99.90;;;;;;10443480;28;20045;-72
2023/12/31 13:37:20;;;;;;;5.75;2.30;;;10.30;99.90;;;;;;10450792;28;20463;-72
2023/12/31 13:42:22;;;;;;;3.05;1.17;;;10.80;99.90;;;;;;10456099;28;20717;-71
2023/12/31 13:47:28;;;;;;;4.47;1.35;;;11.30;99.90;;;;;;10444432;28;20055;-72
2023/12/31 13:52:33;;;;;;;6.47;1.77;;;10.70;99.90;;;;;;10447348;28;20461;-71
2023/12/31 13:57:35;;;;;;;13.15;1.65;;;10.50;99.90;;;;;;10450956;28;20420;-71
2023/12/31 14:02:37;;;;;;;7.28;2.85;;;12.10;99.90;;;;;;10446055;28;20051;-71
2023/12/31 14:07:40;;;;;;;7.85;2.10;;;11.20;99.90;;;;;;10446873;28;20060;-72
2023/12/31 14:12:43;;;;;;;9.57;1.42;;;11.60;99.90;;;;;;10448074;28;20056;-72
2023/12/31 14:17:45;;;;;;;12.45;2.60;;;12.00;99.90;;;;;;10446588;28;20102;-72
2023/12/31 14:22:50;;;;;;;8.70;1.27;;;11.50;99.90;;;;;;10444246;28;20055;-72
2023/12/31 14:27:52;;;;;;;10.52;2.33;;;11.40;99.90;;;;;;10446863;28;20508;-72
2023/12/31 14:32:56;;;;;;;9.38;2.00;;;10.80;99.90;;;;;;10444547;28;20048;-71
2023/12/31 14:38:00;;;;;;;12.50;2.30;;;10.90;99.90;;;;;;10440078;28;20063;-70
2023/12/31 14:43:03;;;;;;;14.48;2.35;;;9.80;99.90;;;;;;10448676;28;20095;-72
2023/12/31 14:48:05;;;;;;;;;;;10.20;99.90;;;;;;10447758;28;20048;-72
2023/12/31 14:53:10;;;;;;;17.23;3.33;;;10.40;99.90;;;;;;10436017;28;19974;-72
2023/12/31 14:58:12;;;;;;;19.67;2.95;;;9.30;99.90;;;;;;10425443;28;20049;-71
2023/12/31 15:03:14;;;;;;;16.10;1.75;;;9.60;99.90;;;;;;10437581;28;20068;-70
2023/12/31 15:08:18;;;;;;;0.20;0.20;;;9.60;99.90;;;;;;10439064;28;20056;-71
2023/12/31 15:13:20;;;;;;;7.30;1.85;;;9.50;99.90;;;;;;10430796;28;20065;-72
2023/12/31 15:18:22;;;;;;;0.10;0.10;;;8.80;99.90;;;;;;10435488;28;20156;-70
2023/12/31 15:23:26;;;;;;;0.20;0.20;;;9.20;99.90;;;;;;10444761;28;20045;-70
2023/12/31 15:28:28;;;;;;;0.10;0.10;;;9.50;99.90;;;;;;10425843;28;20161;-70
2023/12/31 15:33:31;;;;;;;0.32;0.32;;;8.90;99.90;;;;;;10446940;28;20048;-69
2023/12/31 15:38:34;;;;;;;0.50;0.50;;;10.20;99.90;;;;;;10439069;28;20068;-71
2023/12/31 15:43:36;;;;;;;0.52;0.52;;;10.80;99.90;;;;;;10441257;28;20091;-72
2023/12/31 15:48:38;;;;;;;0.10;0.10;;;10.70;99.90;;;;;;10426450;28;20049;-71
2023/12/31 15:53:42;;;;;;;11.05;1.50;;;11.00;99.90;;;;;;10445154;28;20432;-70
2023/12/31 15:58:44;;;;;;;0.40;0.40;;;11.60;99.90;;;;;;10446403;28;20048;-71
2023/12/31 16:03:48;;;;;;;0.27;0.27;;;10.90;99.90;;;;;;10446864;28;20048;-70
2023/12/31 16:08:51;;;;;;;21.88;4.00;;;10.30;99.90;;;;;;10445441;28;20052;-71
2023/12/31 16:13:53;;;;;;;27.50;9.10;;;10.50;99.90;;;;;;10441906;28;20048;-71
2023/12/31 16:18:56;;;;;;;0.10;0.10;;;9.30;99.90;;;;;;10446572;28;20058;-71
2023/12/31 16:23:59;;;;;;;0.10;0.10;;;8.90;99.90;;;;;;10447012;28;20052;-71
2023/12/31 16:29:02;;;;;;;0.20;0.20;;;9.50;99.90;;;;;;10446315;28;20059;-70
2023/12/31 16:34:05;;;;;;;0.10;0.10;;;9.20;99.90;;;;;;10433128;28;20049;-70
2023/12/31 16:39:08;;;;;;;0.20;0.20;;;8.90;99.90;;;;;;10438164;28;20075;-70
2023/12/31 16:44:12;;;;;;;0.13;0.13;;;9.40;99.90;;;;;;10444566;28;20055;-70
2023/12/31 16:49:14;;;;;;;0.10;0.10;;;9.10;99.90;;;;;;10445521;28;20060;-70
2023/12/31 16:54:19;;;;;;;24.90;5.22;;;9.10;99.90;;;;;;10438804;28;20045;-69
2023/12/31 16:59:21;;;;;;;22.92;3.75;;;9.10;99.90;;;;;;10432699;28;20057;-70
2023/12/31 17:04:23;;;;;;;15.65;4.63;;;9.20;99.90;;;;;;10444828;28;20052;-71
2023/12/31 17:09:26;;;;;;;38.83;16.92;;;8.70;99.90;;;;;;10432860;28;20049;-70
2023/12/31 17:14:28;;;;;;;150.52;87.82;;;8.80;99.90;;;;;;10437622;28;20045;-70
2023/12/31 17:19:32;;;;;;;16.23;2.85;;;9.00;99.90;;;;;;10445871;28;20065;-71
2023/12/31 17:24:36;;;;;;;9.40;3.60;;;9.70;99.90;;;;;;10444355;28;20114;-70
2023/12/31 17:29:38;;;;;;;16.75;2.95;;;9.80;99.90;;;;;;10439171;28;20060;-72
2023/12/31 17:34:40;;;;;;;14.85;4.00;;;8.70;99.90;;;;;;10452718;28;20082;-69
2023/12/31 17:39:43;;;;;;;8.95;2.53;;;8.40;99.90;;;;;;10444160;28;20140;-71
2023/12/31 17:44:48;;;;;;;11.13;3.55;;;8.30;99.90;;;;;;10450368;28;20053;-69
2023/12/31 17:49:50;;;;;;;10.60;2.65;;;8.90;99.90;;;;;;10447941;28;20091;-70
2023/12/31 17:54:53;;;;;;;16.40;4.03;;;8.30;99.90;;;;;;10450143;28;20597;-70
2023/12/31 17:59:56;;;;;;;14.48;3.67;;;9.00;99.90;;;;;;10449628;28;20424;-71
2023/12/31 18:04:58;;;;;;;13.13;3.17;;;9.20;99.90;;;;;;10445832;28;20459;-71
2023/12/31 18:10:03;;;;;;;18.10;6.60;;;8.60;99.90;;;;;;10448701;28;20444;-71
2023/12/31 18:15:06;;;;;;;19.13;10.05;;;8.50;99.90;;;;;;10447886;28;20057;-71
2023/12/31 18:20:09;;;;;;;;;;;8.50;99.90;;;;;;10449281;28;20146;-70
2023/12/31 18:25:13;;;;;;;19.50;11.48;;;8.90;99.90;;;;;;10442461;28;19966;-71
2023/12/31 18:30:15;;;;;;;29.48;15.50;;;8.40;99.90;;;;;;10441625;28;20049;-70
2023/12/31 18:35:18;;;;;;;12.83;3.77;;;8.10;99.90;;;;;;10436312;28;20048;-70
2023/12/31 18:40:22;;;;;;;42.17;19.07;;;8.10;99.90;;;;;;10425553;28;20394;-70
2023/12/31 18:45:24;;;;;;;25.55;10.98;;;8.90;99.90;;;;;;10443799;28;20053;-70
2023/12/31 18:50:28;;;;;;;28.40;9.00;;;8.70;99.90;;;;;;10435939;28;20053;-71
2023/12/31 18:55:31;;;;;;;14.63;9.68;;;8.60;99.90;;;;;;10448880;28;20396;-72
2023/12/31 19:00:34;;;;;;;8.10;3.63;;;8.60;99.90;;;;;;10449381;28;20041;-70
2023/12/31 19:05:36;;;;;;;15.35;8.70;;;9.20;99.90;;;;;;10449761;28;20072;-70
2023/12/31 19:10:40;;;;;;;15.25;6.63;;;9.30;99.90;;;;;;10450022;28;20428;-70
2023/12/31 19:15:43;;;;;;;6.78;1.75;;;8.40;99.90;;;;;;10447741;28;20064;-70
2023/12/31 19:20:45;;;;;;;11.85;5.45;;;9.00;99.90;;;;;;10446589;28;20045;-69
2023/12/31 19:25:49;;;;;;;9.73;2.20;;;9.60;99.90;;;;;;10448900;28;20045;-69
2023/12/31 19:30:51;;;;;;;4.47;2.13;;;10.20;99.90;;;;;;10447796;28;20491;-69
2023/12/31 19:35:53;;;;;;;16.30;6.03;;;9.80;99.90;;;;;;10424775;28;20057;-70
2023/12/31 19:40:56;;;;;;;39.93;22.47;;;10.20;99.90;;;;;;10423820;28;20103;-70
2023/12/31 19:45:59;;;;;;;6.32;3.08;;;10.50;99.90;;;;;;10443009;28;20048;-70
2023/12/31 19:51:03;;;;;;;;;;;11.10;99.90;;;;;;10445745;28;20424;-71
2023/12/31 19:56:07;;;;;;;25.75;10.95;;;9.80;99.90;;;;;;10446584;28;19931;-71
2023/12/31 20:01:09;;;;;;;12.10;5.13;;;9.30;99.90;;;;;;10445893;28;20051;-70
2023/12/31 20:06:12;;;;;;;16.47;6.27;;;9.80;99.90;;;;;;10446758;28;20060;-71
2023/12/31 20:11:15;;;;;;;15.05;4.72;;;9.00;99.90;;;;;;10446474;28;20052;-70
2023/12/31 20:16:17;;;;;;;9.98;4.80;;;9.10;99.90;;;;;;10445785;28;20048;-71
2023/12/31 20:21:19;;;;;;;13.25;5.50;;;10.20;99.90;;;;;;10447180;28;20061;-71
2023/12/31 20:26:23;;;;;;;16.23;6.20;;;9.70;99.90;;;;;;10445009;28;20057;-70
2023/12/31 20:31:25;;;;;;;16.17;3.58;;;10.40;99.90;;;;;;10445365;28;20056;-72
2023/12/31 20:36:27;;;;;;;20.13;6.20;;;10.20;99.90;;;;;;10445103;28;20094;-70
2023/12/31 20:41:31;;;;;;;15.02;5.05;;;9.80;99.90;;;;;;10444355;28;20132;-70
2023/12/31 20:46:34;;;;;;;28.80;5.82;;;9.80;99.90;;;;;;10444229;28;20144;-70
2023/12/31 20:51:36;;;;;;;12.80;3.00;;;9.10;99.90;;;;;;10433150;28;20057;-71
2023/12/31 20:56:39;;;;;;;13.97;4.50;;;9.00;99.90;;;;;;10450970;28;20132;-70
2023/12/31 21:01:42;;;;;;;29.23;10.35;;;10.00;99.90;;;;;;10454320;28;20052;-70
2023/12/31 21:06:45;;;;;;;16.20;5.63;;;9.70;99.90;;;;;;10444015;28;20060;-70
2023/12/31 21:11:49;;;;;;;24.40;3.63;;;8.70;99.90;;;;;;10433319;28;20067;-70
2023/12/31 21:16:52;;;;;;;14.88;3.22;;;9.10;99.90;;;;;;10451060;28;20080;-70
2023/12/31 21:21:54;;;;;;;16.40;4.23;;;9.10;99.90;;;;;;10447940;28;20114;-71
2023/12/31 21:27:00;;;;;;;0.28;0.28;;;9.30;99.90;;;;;;10450690;28;20532;-70
2023/12/31 21:32:02;;;;;;;0.13;0.13;;;8.90;99.90;;;;;;10448991;28;20070;-69
2023/12/31 21:37:04;;;;;;;1.20;1.17;;;8.70;99.90;;;;;;10438896;28;20079;-70
2023/12/31 21:42:08;;;;;;;11.53;2.07;;;8.60;99.90;;;;;;10447808;28;20044;-70
2023/12/31 21:47:10;;;;;;;32.20;9.52;;;8.80;99.90;;;;;;10449028;28;20049;-70
2023/12/31 21:52:12;;;;;;;24.63;5.68;;;8.60;99.90;;;;;;10458524;28;20568;-71
2023/12/31 21:57:16;;;;;;;0.10;0.10;;;8.90;99.90;;;;;;10459150;28;20049;-69
2023/12/31 22:02:18;;;;;;;1.25;1.25;;;8.90;99.90;;;;;;10437610;28;20079;-70
2023/12/31 22:07:20;;;;;;;0.70;0.70;;;8.60;99.90;;;;;;10451046;28;20098;-69
2023/12/31 22:12:25;;;;;;;25.98;5.50;;;8.40;99.90;;;;;;10451555;28;20861;-71
2023/12/31 22:17:27;;;;;;;28.33;5.57;;;8.60;99.90;;;;;;10449170;28;20447;-70
2023/12/31 22:22:30;;;;;;;33.50;7.07;;;8.60;99.90;;;;;;10451441;28;20052;-70
2023/12/31 22:27:34;;;;;;;37.70;5.82;;;8.10;99.90;;;;;;10451291;28;20056;-70
2023/12/31 22:32:36;;;;;;;33.83;8.30;;;8.10;99.90;;;;;;10443891;28;20049;-69
2023/12/31 22:37:39;;;;;;;31.10;6.13;;;8.00;99.90;;;;;;10448139;28;20091;-69
2023/12/31 22:42:42;;;;;;;28.52;7.38;;;8.50;99.90;;;;;;10441878;28;20057;-70
2023/12/31 22:47:44;;;;;;;0.45;0.45;;;8.60;99.90;;;;;;10436510;28;20045;-70
2023/12/31 22:52:46;;;;;;;0.47;0.47;;;8.20;99.90;;;;;;10447909;28;20053;-70
2023/12/31 22:57:50;;;;;;;1.10;1.10;;;8.30;99.90;;;;;;10441083;28;20689;-71
2023/12/31 23:02:54;;;;;;;0.25;0.25;;;8.10;99.90;;;;;;10440862;28;20064;-70
2023/12/31 23:07:56;;;;;;;1.50;1.42;;;8.00;99.90;;;;;;10441842;28;20053;-70
2023/12/31 23:13:00;;;;;;;0.40;0.40;;;8.10;99.90;;;;;;10438813;28;20059;-70
2023/12/31 23:18:02;;;;;;;16.92;7.88;;;7.90;99.90;;;;;;10438420;28;20170;-70
2023/12/31 23:23:05;;;;;;;0.73;0.73;;;7.80;99.90;;;;;;10441957;28;20071;-71
2023/12/31 23:28:08;;;;;;;1.38;1.27;;;8.00;99.90;;;;;;10441182;28;20389;-70
2023/12/31 23:33:10;;;;;;;45.22;19.10;;;8.00;99.90;;;;;;10442072;28;20056;-70
2023/12/31 23:38:12;;;;;;;29.10;10.45;;;8.10;99.90;;;;;;10435618;28;20064;-70
2023/12/31 23:43:16;;;;;;;38.40;16.80;;;8.40;99.90;;;;;;10447422;28;20530;-71
2023/12/31 23:48:19;;;;;;;48.00;23.20;;;8.10;99.90;;;;;;10445485;28;20056;-69
2023/12/31 23:53:21;;;;;;;3.37;1.87;;;8.40;99.90;;;;;;10447790;28;20049;-71
2023/12/31 23:58:25;;;;;;;41.45;17.90;;;7.50;99.90;;;;;;10446923;28;20045;-70
